Time;durP1;ratioP1;P1;durP2;ratioP2;P2;SDS_P1;SDS_P2;PMS_P1;PMS_P2;Temp;Humidity;BMP_temperature;BMP_pressure;BME280_temperature;BME280_humidity;BME280_pressure;Samples;Min_cycle;Max_cycle;Signal;HPM_P1;HPM_P2
2023/08/14 00:02:07;;;;;;;7.70;7.03;;;22.10;99.90;;;;;;10400502;28;20585;-79
2023/08/14 00:07:09;;;;;;;8.53;7.60;;;22.10;99.90;;;;;;10401311;28;20222;-79
2023/08/14 00:12:13;;;;;;;7.87;7.07;;;22.10;99.90;;;;;;10400344;28;20211;-78
2023/08/14 00:17:15;;;;;;;8.23;7.63;;;22.10;99.90;;;;;;10401024;28;20321;-79
2023/08/14 00:22:17;;;;;;;8.57;7.77;;;22.10;99.90;;;;;;10399922;28;20221;-78
2023/08/14 00:27:21;;;;;;;7.77;7.10;;;22.10;99.90;;;;;;10394220;28;20223;-80
2023/08/14 00:32:23;;;;;;;8.13;7.30;;;22.10;99.90;;;;;;10397951;28;20226;-79
2023/08/14 00:37:40;;;;;;;9.63;8.70;;;22.10;99.90;;;;;;10396787;28;20235;-78
2023/08/14 00:42:46;;;;;;;10.60;8.73;;;22.10;99.90;;;;;;10399051;28;20276;-79
2023/08/14 00:47:48;;;;;;;9.33;8.50;;;22.10;99.90;;;;;;10396574;28;20344;-80
2023/08/14 00:52:55;;;;;;;8.67;8.00;;;22.20;99.90;;;;;;10397102;28;20221;-79
2023/08/14 00:57:59;;;;;;;8.20;7.70;;;22.20;99.90;;;;;;10395633;28;20230;-79
2023/08/14 01:03:02;;;;;;;9.50;8.67;;;22.20;99.90;;;;;;10390987;28;20211;-80
2023/08/14 01:08:05;;;;;;;8.63;8.13;;;22.30;99.90;;;;;;10391969;28;20203;-79
2023/08/14 01:13:16;;;;;;;10.20;8.60;;;22.30;99.90;;;;;;10397081;28;20202;-78
2023/08/14 01:18:21;;;;;;;9.63;8.83;;;22.30;99.90;;;;;;10410904;28;20205;-79
2023/08/14 01:23:32;;;;;;;9.00;8.47;;;22.40;99.90;;;;;;10410105;28;20252;-79
2023/08/14 01:28:37;;;;;;;9.00;8.20;;;22.40;99.90;;;;;;10409264;28;20230;-79
2023/08/14 01:33:39;;;;;;;9.10;8.50;;;22.50;99.90;;;;;;10410071;28;20222;-79
2023/08/14 01:38:50;;;;;;;10.40;9.47;;;22.50;99.90;;;;;;10413296;28;20203;-79
2023/08/14 01:43:59;;;;;;;9.80;8.90;;;22.60;99.90;;;;;;10410585;28;20846;-80
2023/08/14 01:49:03;;;;;;;9.20;8.60;;;22.60;99.90;;;;;;10411544;28;20207;-79
2023/08/14 01:54:05;;;;;;;8.57;7.90;;;22.60;99.90;;;;;;10414107;28;20237;-79
2023/08/14 01:59:09;;;;;;;8.87;7.97;;;22.60;99.90;;;;;;10415158;28;20297;-79
2023/08/14 02:04:11;;;;;;;8.57;7.97;;;22.50;99.90;;;;;;10417496;28;20229;-79
2023/08/14 02:09:13;;;;;;;8.03;7.33;;;22.50;99.90;;;;;;10428735;28;20211;-80
2023/08/14 02:14:17;;;;;;;7.40;6.80;;;22.30;99.90;;;;;;10403634;28;20248;-80
2023/08/14 02:19:19;;;;;;;9.50;7.77;;;22.20;99.90;;;;;;10403950;28;20220;-80
2023/08/14 02:24:21;;;;;;;7.20;6.70;;;22.10;99.90;;;;;;10402862;28;20587;-79
2023/08/14 02:29:24;;;;;;;7.77;7.20;;;22.00;99.90;;;;;;10402505;28;20245;-79
2023/08/14 02:34:34;;;;;;;10.07;9.47;;;21.90;99.90;;;;;;10405585;28;20269;-79
2023/08/14 02:39:36;;;;;;;15.63;14.30;;;21.90;99.90;;;;;;10413962;28;20207;-82
2023/08/14 02:44:40;;;;;;;12.80;12.10;;;21.80;99.90;;;;;;10412626;28;20977;-82
2023/08/14 02:49:42;;;;;;;13.57;12.50;;;21.70;99.90;;;;;;10412471;28;20261;-80
2023/08/14 02:54:47;;;;;;;13.60;12.67;;;21.60;99.90;;;;;;10402918;28;20371;-82
2023/08/14 02:59:50;;;;;;;13.23;12.53;;;21.50;99.90;;;;;;10417259;28;20203;-81
2023/08/14 03:04:52;;;;;;;15.33;14.33;;;21.30;99.90;;;;;;10429692;28;20219;-80
2023/08/14 03:09:56;;;;;;;14.00;13.03;;;21.20;99.90;;;;;;10411408;28;20281;-80
2023/08/14 03:14:59;;;;;;;14.47;13.67;;;21.20;99.90;;;;;;10409892;28;20736;-80
2023/08/14 03:20:03;;;;;;;15.03;14.20;;;21.20;99.90;;;;;;10416195;28;20705;-80
2023/08/14 03:25:06;;;;;;;13.83;13.03;;;21.10;99.90;;;;;;10420213;28;20776;-79
2023/08/14 03:30:12;;;;;;;12.20;11.50;;;21.20;99.90;;;;;;10404601;28;20294;-80
2023/08/14 03:35:15;;;;;;;14.33;13.37;;;21.10;99.90;;;;;;10417207;28;20301;-81
2023/08/14 03:40:17;;;;;;;13.97;13.03;;;21.10;99.90;;;;;;10413175;28;20203;-80
2023/08/14 03:45:21;;;;;;;13.53;12.50;;;21.10;99.90;;;;;;10397528;28;20230;-82
2023/08/14 03:50:23;;;;;;;12.73;11.93;;;21.00;99.90;;;;;;10401850;28;20218;-79
2023/08/14 03:55:25;;;;;;;14.97;13.70;;;20.90;99.90;;;;;;10409431;28;20222;-80
2023/08/14 04:00:29;;;;;;;13.57;12.57;;;20.90;99.90;;;;;;10407154;28;20431;-80
2023/08/14 04:05:31;;;;;;;12.70;12.10;;;20.80;99.90;;;;;;10418009;28;20237;-79
2023/08/14 04:10:33;;;;;;;13.43;12.67;;;20.80;99.90;;;;;;10432078;28;20206;-79
2023/08/14 04:15:37;;;;;;;13.90;13.10;;;20.70;99.90;;;;;;10414514;28;20515;-80
2023/08/14 04:20:39;;;;;;;13.63;12.50;;;20.70;99.90;;;;;;10415510;28;20206;-80
2023/08/14 04:25:41;;;;;;;12.17;11.37;;;20.70;99.90;;;;;;10414028;28;21255;-80
2023/08/14 04:30:45;;;;;;;13.20;12.50;;;20.70;99.90;;;;;;10420821;28;20202;-80
2023/08/14 04:35:47;;;;;;;13.30;12.47;;;20.70;99.90;;;;;;10434504;28;20786;-81
2023/08/14 04:40:49;;;;;;;13.90;13.10;;;20.70;99.90;;;;;;10428213;28;20277;-80
2023/08/14 04:45:55;;;;;;;13.87;11.50;;;20.70;99.90;;;;;;10438442;22;20238;-88
2023/08/14 04:50:57;;;;;;;13.60;12.50;;;20.60;99.90;;;;;;10424878;28;20221;-85
2023/08/14 04:56:00;;;;;;;11.37;10.87;;;20.60;99.90;;;;;;10431165;28;20285;-86
2023/08/14 05:01:05;;;;;;;12.90;12.00;;;20.60;99.90;;;;;;10412091;28;20584;-85
2023/08/14 05:06:07;;;;;;;12.20;11.60;;;20.60;99.90;;;;;;10403587;28;20324;-87
2023/08/14 05:11:09;;;;;;;12.47;11.77;;;20.60;99.90;;;;;;10423730;28;20305;-85
2023/08/14 05:16:13;;;;;;;11.30;10.60;;;20.60;99.90;;;;;;10420426;28;20237;-86
2023/08/14 05:21:16;;;;;;;11.80;11.20;;;20.60;99.90;;;;;;10417390;28;20202;-85
2023/08/14 05:26:18;;;;;;;13.87;12.50;;;20.60;99.90;;;;;;10432224;28;20275;-86
2023/08/14 05:31:21;;;;;;;11.20;10.60;;;20.70;99.90;;;;;;10423639;28;20221;-86
2023/08/14 05:36:23;;;;;;;11.43;10.83;;;20.90;99.90;;;;;;10421498;28;20605;-86
2023/08/14 05:41:26;;;;;;;11.10;10.40;;;21.10;99.90;;;;;;10421306;28;20205;-86
2023/08/14 05:46:29;;;;;;;11.17;10.50;;;21.20;99.90;;;;;;10420616;28;20503;-85
2023/08/14 05:51:32;;;;;;;11.03;10.40;;;21.40;99.90;;;;;;10422538;28;20249;-86
2023/08/14 05:56:34;;;;;;;10.87;9.87;;;21.50;99.90;;;;;;10425191;28;20710;-85
2023/08/14 06:01:39;;;;;;;11.50;10.83;;;21.50;99.90;;;;;;10424836;28;20296;-86
2023/08/14 06:06:41;;;;;;;10.77;10.17;;;21.60;99.90;;;;;;10424462;28;20288;-86
2023/08/14 06:11:43;;;;;;;12.37;11.47;;;21.70;99.90;;;;;;10424632;28;20744;-87
2023/08/14 06:16:47;;;;;;;13.30;12.40;;;21.80;99.90;;;;;;10424432;28;20225;-85
2023/08/14 06:21:49;;;;;;;12.47;11.77;;;21.90;99.90;;;;;;10422968;28;20711;-86
2023/08/14 06:26:51;;;;;;;12.63;11.93;;;22.00;99.90;;;;;;10426135;28;20232;-86
2023/08/14 06:31:56;;;;;;;12.03;11.40;;;22.10;99.90;;;;;;10427542;28;20241;-87
2023/08/14 06:36:58;;;;;;;12.17;11.47;;;22.20;99.90;;;;;;10421627;28;20240;-86
2023/08/14 06:42:01;;;;;;;12.63;11.93;;;22.20;99.90;;;;;;10420977;28;20218;-86
2023/08/14 06:47:05;;;;;;;9.97;9.27;;;22.20;99.90;;;;;;10435403;28;20230;-87
2023/08/14 06:52:07;;;;;;;11.30;10.60;;;22.20;99.90;;;;;;10417429;28;21210;-84
2023/08/14 06:57:09;;;;;;;12.23;11.43;;;22.10;99.90;;;;;;10421721;28;20229;-86
2023/08/14 07:02:13;;;;;;;11.53;10.67;;;22.20;99.90;;;;;;10420451;28;20564;-86
2023/08/14 07:07:16;;;;;;;15.90;11.87;;;22.20;99.90;;;;;;10441128;28;20761;-87
2023/08/14 07:12:18;;;;;;;11.20;10.40;;;22.20;99.90;;;;;;10422134;28;20206;-86
2023/08/14 07:17:22;;;;;;;11.27;10.57;;;22.20;99.90;;;;;;10427198;28;20629;-87
2023/08/14 07:22:24;;;;;;;9.57;9.00;;;22.20;99.90;;;;;;10429481;28;20545;-86
2023/08/14 07:27:26;;;;;;;9.97;9.37;;;22.30;99.90;;;;;;10421974;28;20218;-86
2023/08/14 07:32:29;;;;;;;9.63;8.90;;;22.30;99.90;;;;;;10423277;28;20229;-87
2023/08/14 07:37:31;;;;;;;11.50;10.70;;;22.50;99.90;;;;;;10434486;28;20225;-86
2023/08/14 07:42:34;;;;;;;9.40;8.60;;;22.60;99.90;;;;;;10463094;28;20201;-86
2023/08/14 07:47:37;;;;;;;10.53;9.80;;;23.00;99.90;;;;;;10465026;28;20337;-86
2023/08/14 07:52:39;;;;;;;11.70;10.80;;;23.20;99.90;;;;;;10460621;28;20199;-86
2023/08/14 07:57:45;;;;;;;8.50;8.00;;;23.50;99.90;;;;;;10444450;28;20240;-86
2023/08/14 08:02:49;;;;;;;8.87;8.30;;;23.80;99.90;;;;;;10438990;28;20522;-88
2023/08/14 08:07:51;;;;;;;8.80;7.97;;;24.00;99.90;;;;;;10423080;28;20365;-87
2023/08/14 08:12:53;;;;;;;7.80;7.30;;;24.20;99.90;;;;;;10428408;28;20282;-85
2023/08/14 08:17:57;;;;;;;6.67;6.37;;;24.40;99.90;;;;;;10424968;28;20700;-86
2023/08/14 08:23:00;;;;;;;7.50;6.90;;;24.50;99.90;;;;;;10425571;28;20199;-87
2023/08/14 08:28:02;;;;;;;5.60;5.20;;;24.70;99.90;;;;;;10426568;28;20223;-86
2023/08/14 08:33:06;;;;;;;9.30;6.80;;;25.00;99.90;;;;;;10418836;28;20236;-85
2023/08/14 08:38:08;;;;;;;6.10;5.70;;;25.30;99.90;;;;;;10424562;28;20237;-86
2023/08/14 08:43:11;;;;;;;3.63;3.43;;;25.70;99.90;;;;;;10426365;28;20198;-87
2023/08/14 08:48:16;;;;;;;10.53;4.00;;;26.00;99.90;;;;;;10424645;28;20241;-85
2023/08/14 08:53:20;;;;;;;4.00;3.70;;;26.20;99.90;;;;;;10427332;28;20234;-86
2023/08/14 08:58:23;;;;;;;4.17;3.87;;;26.30;99.90;;;;;;10427120;28;20226;-86
2023/08/14 09:03:26;;;;;;;4.70;4.40;;;26.40;99.90;;;;;;10424589;28;20262;-86
2023/08/14 09:08:28;;;;;;;4.10;3.90;;;26.40;99.90;;;;;;10424586;28;20260;-86
2023/08/14 09:13:30;;;;;;;4.40;4.10;;;26.30;99.90;;;;;;10443415;28;20641;-85
2023/08/14 09:18:34;;;;;;;4.97;4.57;;;26.20;99.90;;;;;;10422810;28;20233;-84
2023/08/14 09:23:38;;;;;;;5.10;4.80;;;26.20;99.90;;;;;;10434166;28;20209;-84
2023/08/14 09:28:40;;;;;;;4.87;4.57;;;26.20;99.90;;;;;;10425562;28;20688;-86
2023/08/14 09:33:45;;;;;;;4.67;4.27;;;26.30;99.90;;;;;;10424554;28;20853;-86
2023/08/14 09:38:51;;;;;;;4.20;3.90;;;26.50;99.90;;;;;;10424662;28;20310;-85
2023/08/14 09:43:54;;;;;;;4.67;4.07;;;26.90;99.90;;;;;;10425040;28;20728;-87
2023/08/14 09:48:57;;;;;;;4.20;3.90;;;27.50;99.90;;;;;;10425549;28;20210;-85
2023/08/14 09:53:59;;;;;;;4.30;4.00;;;28.00;99.90;;;;;;10424947;28;20214;-86
2023/08/14 09:59:01;;;;;;;3.70;3.40;;;28.40;99.90;;;;;;10433882;28;20222;-87
2023/08/14 10:04:06;;;;;;;3.90;3.60;;;28.70;99.90;;;;;;10412145;28;20261;-86
2023/08/14 10:09:09;;;;;;;4.93;3.57;;;29.10;99.90;;;;;;10420465;28;20214;-86
2023/08/14 10:14:14;;;;;;;4.20;4.00;;;29.40;99.90;;;;;;10414736;28;20215;-86
2023/08/14 10:19:24;;;;;;;4.63;4.33;;;29.60;99.90;;;;;;10397297;28;20246;-85
2023/08/14 10:24:28;;;;;;;7.93;4.57;;;29.70;99.90;;;;;;10385084;28;20245;-88
2023/08/14 10:29:31;;;;;;;4.40;4.07;;;29.80;99.90;;;;;;10421391;28;20203;-85
2023/08/14 10:34:35;;;;;;;4.80;4.50;;;29.70;99.90;;;;;;10419657;28;20226;-87
2023/08/14 10:39:37;;;;;;;5.10;4.80;;;29.70;99.90;;;;;;10402154;28;20329;-86
2023/08/14 10:44:43;;;;;;;5.40;4.93;;;29.70;99.90;;;;;;10417981;28;20231;-86
2023/08/14 10:49:50;;;;;;;4.73;4.43;;;29.50;99.90;;;;;;10397225;28;20222;-86
2023/08/14 10:54:53;;;;;;;4.90;4.60;;;29.20;99.90;;;;;;10409096;28;20214;-86
2023/08/14 10:59:57;;;;;;;4.40;4.17;;;29.00;99.90;;;;;;10399283;28;20218;-85
2023/08/14 11:05:03;;;;;;;5.10;4.80;;;28.80;99.90;;;;;;10439117;28;20283;-85
2023/08/14 11:10:06;;;;;;;5.47;4.93;;;28.70;99.90;;;;;;10434042;28;20214;-86
2023/08/14 11:15:09;;;;;;;6.03;5.20;;;28.50;99.90;;;;;;10380104;28;20616;-85
2023/08/14 11:20:13;;;;;;;4.90;4.50;;;28.30;99.90;;;;;;10395190;28;20335;-85
2023/08/14 11:25:16;;;;;;;5.13;4.63;;;28.30;99.90;;;;;;10414122;28;20597;-85
2023/08/14 11:30:18;;;;;;;4.77;4.47;;;28.40;99.90;;;;;;10385121;28;20662;-84
2023/08/14 11:35:22;;;;;;;5.83;5.43;;;28.40;99.90;;;;;;10415890;28;20223;-86
2023/08/14 11:40:25;;;;;;;5.40;5.00;;;28.40;99.90;;;;;;10406204;28;20316;-86
2023/08/14 11:45:27;;;;;;;4.87;4.30;;;28.40;99.90;;;;;;10419959;28;20784;-86
2023/08/14 11:50:31;;;;;;;5.33;4.83;;;28.40;99.90;;;;;;10414674;28;20678;-86
2023/08/14 11:55:34;;;;;;;4.80;4.50;;;28.10;99.90;;;;;;10419863;28;20228;-86
2023/08/14 12:00:36;;;;;;;5.13;4.83;;;27.90;99.90;;;;;;10421027;28;20211;-85
2023/08/14 12:05:40;;;;;;;5.37;4.97;;;27.80;99.90;;;;;;10422881;28;20229;-87
2023/08/14 12:10:42;;;;;;;5.33;4.83;;;27.60;99.90;;;;;;10421903;28;20218;-88
2023/08/14 12:15:44;;;;;;;5.20;4.90;;;27.60;99.90;;;;;;10422893;28;20234;-87
2023/08/14 12:20:52;;;;;;;4.53;4.23;;;27.70;99.90;;;;;;10423051;28;20218;-85
2023/08/14 12:25:55;;;;;;;4.90;4.60;;;27.80;99.90;;;;;;10441478;28;20244;-86
2023/08/14 12:30:58;;;;;;;4.63;4.33;;;27.90;99.90;;;;;;10395169;28;20210;-84
2023/08/14 12:36:01;;;;;;;5.23;4.93;;;28.00;99.90;;;;;;10433119;28;20214;-87
2023/08/14 12:41:04;;;;;;;5.23;4.83;;;27.90;99.90;;;;;;10425615;28;20206;-86
2023/08/14 12:46:08;;;;;;;4.90;4.60;;;27.80;99.90;;;;;;10399543;28;20222;-86
2023/08/14 12:51:12;;;;;;;4.50;4.10;;;27.70;99.90;;;;;;10422815;28;20792;-85
2023/08/14 12:56:14;;;;;;;5.40;4.83;;;27.60;99.90;;;;;;10430480;28;20242;-86
2023/08/14 13:01:16;;;;;;;4.70;4.30;;;27.50;99.90;;;;;;10423026;28;20549;-86
2023/08/14 13:06:20;;;;;;;5.93;5.33;;;27.30;99.90;;;;;;10390250;28;20718;-87
2023/08/14 13:11:22;;;;;;;4.63;4.27;;;27.20;99.90;;;;;;10410539;28;20195;-86
2023/08/14 13:16:25;;;;;;;5.90;4.57;;;27.20;99.90;;;;;;10430603;28;20276;-86
2023/08/14 13:21:29;;;;;;;4.67;4.27;;;27.20;99.90;;;;;;10445534;28;20282;-87
2023/08/14 13:26:31;;;;;;;4.37;4.03;;;27.30;99.90;;;;;;10387923;28;20215;-85
2023/08/14 13:31:33;;;;;;;7.23;4.23;;;27.40;99.90;;;;;;10389125;28;20203;-86
2023/08/14 13:36:37;;;;;;;4.83;4.43;;;27.50;99.90;;;;;;10426384;28;20227;-84
2023/08/14 13:41:39;;;;;;;5.53;4.90;;;27.60;99.90;;;;;;10424515;28;20613;-85
2023/08/14 13:46:41;;;;;;;5.10;4.70;;;27.60;99.90;;;;;;10400373;28;20219;-85
2023/08/14 13:51:47;;;;;;;4.80;4.50;;;27.60;99.90;;;;;;10426094;28;20195;-85
2023/08/14 13:56:49;;;;;;;7.97;4.70;;;27.70;99.90;;;;;;10388473;28;20227;-86
2023/08/14 14:01:51;;;;;;;4.63;4.10;;;27.70;99.90;;;;;;10386310;28;20214;-86
2023/08/14 14:06:55;;;;;;;4.87;4.57;;;27.70;99.90;;;;;;10422189;28;20252;-85
2023/08/14 14:11:57;;;;;;;5.23;4.83;;;27.60;99.90;;;;;;10420032;28;20219;-83
2023/08/14 14:17:00;;;;;;;4.87;4.47;;;27.50;99.90;;;;;;10388741;28;20322;-86
2023/08/14 14:22:04;;;;;;;4.53;4.03;;;27.50;99.90;;;;;;10424272;28;20198;-86
2023/08/14 14:27:06;;;;;;;4.60;4.20;;;27.60;99.90;;;;;;10421107;28;20333;-86
2023/08/14 14:32:08;;;;;;;4.43;4.13;;;27.70;99.90;;;;;;10421934;28;20201;-87
2023/08/14 14:37:12;;;;;;;5.03;4.57;;;27.80;99.90;;;;;;10413436;28;20226;-84
2023/08/14 14:42:14;;;;;;;4.70;4.23;;;27.70;99.90;;;;;;10387180;28;20199;-86
2023/08/14 14:47:16;;;;;;;5.13;4.83;;;27.60;99.90;;;;;;10413734;28;20234;-86
2023/08/14 14:52:20;;;;;;;5.10;4.60;;;27.50;99.90;;;;;;10396287;28;20202;-86
2023/08/14 14:57:22;;;;;;;7.20;4.67;;;27.30;99.90;;;;;;10419343;28;20697;-86
2023/08/14 15:02:24;;;;;;;4.80;4.40;;;27.20;99.90;;;;;;10418333;28;20194;-84
2023/08/14 15:07:28;;;;;;;5.37;4.97;;;27.20;99.90;;;;;;10414553;28;20275;-87
2023/08/14 15:12:30;;;;;;;5.47;5.07;;;27.20;99.90;;;;;;10435014;28;20298;-86
2023/08/14 15:17:32;;;;;;;7.53;5.23;;;27.30;99.90;;;;;;10403795;28;20210;-85
2023/08/14 15:22:36;;;;;;;5.03;4.63;;;27.30;99.90;;;;;;10444573;28;20272;-85
2023/08/14 15:27:38;;;;;;;5.90;4.33;;;27.20;99.90;;;;;;10398387;28;20234;-85
2023/08/14 15:32:40;;;;;;;4.83;4.13;;;27.00;99.90;;;;;;10394818;28;20259;-85
2023/08/14 15:37:45;;;;;;;6.70;4.43;;;27.00;99.90;;;;;;10414240;28;20215;-85
2023/08/14 15:42:47;;;;;;;4.80;4.43;;;27.00;99.90;;;;;;10435417;28;20575;-85
2023/08/14 15:47:50;;;;;;;4.70;4.40;;;26.90;99.90;;;;;;10416666;28;20219;-86
2023/08/14 15:52:53;;;;;;;5.57;5.07;;;26.90;99.90;;;;;;10419650;28;20203;-86
2023/08/14 15:57:56;;;;;;;4.70;4.30;;;26.90;99.90;;;;;;10445640;28;20225;-85
2023/08/14 16:02:58;;;;;;;5.10;4.67;;;26.90;99.90;;;;;;10406743;28;20195;-85
2023/08/14 16:08:02;;;;;;;5.40;5.00;;;26.80;99.90;;;;;;10425116;28;20674;-85
2023/08/14 16:13:04;;;;;;;5.23;4.80;;;26.70;99.90;;;;;;10422951;28;20179;-85
2023/08/14 16:18:06;;;;;;;6.30;4.90;;;26.60;99.90;;;;;;10429994;28;20206;-85
2023/08/14 16:23:11;;;;;;;5.53;4.90;;;26.50;99.90;;;;;;10434531;28;20434;-84
2023/08/14 16:28:13;;;;;;;5.17;4.50;;;26.50;99.90;;;;;;10438187;28;20226;-84
2023/08/14 16:33:15;;;;;;;6.77;6.23;;;26.40;99.90;;;;;;10408261;28;20203;-85
2023/08/14 16:38:19;;;;;;;7.50;5.63;;;26.40;99.90;;;;;;10408959;28;20231;-85
2023/08/14 16:43:21;;;;;;;5.37;4.87;;;26.30;99.90;;;;;;10424506;28;20202;-84
2023/08/14 16:48:23;;;;;;;17.53;6.03;;;26.20;99.90;;;;;;10438868;28;20219;-84
2023/08/14 16:53:27;;;;;;;5.90;5.50;;;26.20;99.90;;;;;;10408029;28;20230;-85
2023/08/14 16:58:29;;;;;;;7.20;6.23;;;26.20;99.90;;;;;;10428812;28;20345;-85
2023/08/14 17:03:31;;;;;;;6.83;6.20;;;26.20;99.90;;;;;;10440544;28;20194;-85
2023/08/14 17:08:35;;;;;;;5.60;5.10;;;26.30;99.90;;;;;;10445932;28;20230;-84
2023/08/14 17:13:37;;;;;;;9.40;5.43;;;26.30;99.90;;;;;;10435592;28;20214;-85
2023/08/14 17:18:39;;;;;;;10.03;5.47;;;26.40;99.90;;;;;;10432503;28;20256;-85
2023/08/14 17:23:42;;;;;;;6.00;5.50;;;26.50;99.90;;;;;;10427999;28;20211;-85
2023/08/14 17:28:44;;;;;;;6.20;5.70;;;26.40;99.90;;;;;;10433208;28;20562;-85
2023/08/14 17:33:47;;;;;;;6.50;5.90;;;26.40;99.90;;;;;;10432485;28;20230;-85
2023/08/14 17:38:50;;;;;;;7.20;5.37;;;26.40;99.90;;;;;;10433120;28;20229;-84
2023/08/14 17:43:53;;;;;;;6.23;5.73;;;26.30;99.90;;;;;;10429898;28;20238;-86
2023/08/14 17:48:55;;;;;;;4.80;4.50;;;26.20;99.90;;;;;;10436125;28;20190;-83
2023/08/14 17:53:59;;;;;;;6.00;5.50;;;26.20;99.90;;;;;;10440976;28;20241;-85
2023/08/14 17:59:02;;;;;;;7.63;6.83;;;26.10;99.90;;;;;;10435966;28;20218;-85
2023/08/14 18:04:04;;;;;;;6.30;5.70;;;26.10;99.90;;;;;;10431661;28;20267;-85
2023/08/14 18:09:08;;;;;;;6.13;5.63;;;26.00;99.90;;;;;;10433484;28;20209;-85
2023/08/14 18:14:10;;;;;;;6.53;6.03;;;26.00;99.90;;;;;;10429658;28;20234;-86
2023/08/14 18:19:12;;;;;;;5.77;5.37;;;26.00;99.90;;;;;;10428524;28;20222;-83
2023/08/14 18:24:16;;;;;;;7.20;6.57;;;26.00;99.90;;;;;;10423250;28;20256;-86
2023/08/14 18:29:18;;;;;;;6.70;6.27;;;25.90;99.90;;;;;;10423767;28;21479;-86
2023/08/14 18:34:20;;;;;;;7.80;6.40;;;25.80;99.90;;;;;;10425919;28;20957;-86
2023/08/14 18:39:24;;;;;;;10.83;7.00;;;25.80;99.90;;;;;;10421531;28;20250;-86
2023/08/14 18:44:26;;;;;;;8.30;7.70;;;25.70;99.90;;;;;;10423744;28;20234;-86
2023/08/14 18:49:28;;;;;;;7.00;6.37;;;25.60;99.90;;;;;;10433372;28;20630;-87
2023/08/14 18:54:33;;;;;;;8.10;7.37;;;25.60;99.90;;;;;;10424465;28;20222;-88
2023/08/14 18:59:35;;;;;;;12.53;11.50;;;25.50;99.90;;;;;;10429579;28;20215;-87
2023/08/14 19:04:37;;;;;;;7.03;6.53;;;25.50;99.90;;;;;;10434536;28;20206;-88
2023/08/14 19:09:43;;;;;;;7.77;6.80;;;25.50;99.90;;;;;;10428037;28;20202;-87
2023/08/14 19:14:45;;;;;;;9.90;8.87;;;25.50;99.90;;;;;;10423214;28;20282;-85
2023/08/14 19:19:48;;;;;;;7.90;6.83;;;25.40;99.90;;;;;;10423834;28;20225;-86
2023/08/14 19:24:52;;;;;;;7.53;7.03;;;25.40;99.90;;;;;;10418842;28;20234;-87
2023/08/14 19:29:54;;;;;;;7.93;7.33;;;25.40;99.90;;;;;;10424691;28;20233;-86
2023/08/14 19:34:57;;;;;;;7.20;6.50;;;25.30;99.90;;;;;;10428918;28;20222;-87
2023/08/14 19:40:01;;;;;;;12.50;8.30;;;25.20;99.90;;;;;;10430393;28;20226;-86
2023/08/14 19:45:03;;;;;;;7.90;7.20;;;25.10;99.90;;;;;;10428388;28;20291;-87
2023/08/14 19:50:06;;;;;;;7.80;7.10;;;25.10;99.90;;;;;;10429582;28;20225;-85
2023/08/14 19:55:10;;;;;;;8.20;7.60;;;25.00;99.90;;;;;;10425346;28;20226;-87
2023/08/14 20:00:13;;;;;;;8.87;8.17;;;25.00;99.90;;;;;;10427442;28;20709;-88
2023/08/14 20:05:15;;;;;;;7.83;7.23;;;25.00;99.90;;;;;;10427169;28;21233;-84
2023/08/14 20:10:19;;;;;;;9.27;8.37;;;24.90;99.90;;;;;;10426347;28;20612;-85
2023/08/14 20:15:21;;;;;;;8.80;7.97;;;24.80;99.90;;;;;;10427678;28;20626;-86
2023/08/14 20:20:23;;;;;;;9.00;8.23;;;24.80;99.90;;;;;;10429227;28;20758;-86
2023/08/14 20:25:27;;;;;;;9.33;8.63;;;24.70;99.90;;;;;;10435155;28;20230;-87
2023/08/14 20:30:30;;;;;;;9.57;8.67;;;24.70;99.90;;;;;;10439068;28;20670;-87
2023/08/14 20:35:37;;;;;;;9.10;8.20;;;24.70;99.90;;;;;;10427530;28;20230;-86
2023/08/14 20:40:41;;;;;;;8.30;7.80;;;24.60;99.90;;;;;;10426164;28;20226;-86
2023/08/14 20:45:43;;;;;;;9.27;8.43;;;24.60;99.90;;;;;;10424892;28;20849;-86
2023/08/14 20:50:46;;;;;;;8.50;7.90;;;24.60;99.90;;;;;;10431070;28;20205;-86
2023/08/14 20:55:49;;;;;;;9.27;7.93;;;24.60;99.90;;;;;;10434628;28;20230;-87
2023/08/14 21:00:51;;;;;;;9.77;8.07;;;24.50;99.90;;;;;;10433597;28;20222;-85
2023/08/14 21:05:56;;;;;;;9.50;8.60;;;24.50;99.90;;;;;;10435334;28;20249;-86
2023/08/14 21:11:01;;;;;;;8.60;8.10;;;24.50;99.90;;;;;;10457155;28;20329;-86
2023/08/14 21:16:03;;;;;;;8.63;7.83;;;24.50;99.90;;;;;;10437498;28;20358;-86
2023/08/14 21:21:05;;;;;;;8.90;8.30;;;24.40;99.90;;;;;;10431013;28;20223;-87
2023/08/14 21:26:09;;;;;;;8.40;7.70;;;24.40;99.90;;;;;;10427836;28;20222;-87
2023/08/14 21:31:11;;;;;;;7.97;7.47;;;24.40;99.90;;;;;;10428664;28;20207;-86
2023/08/14 21:36:14;;;;;;;9.10;8.40;;;24.40;99.90;;;;;;10428314;28;20222;-88
2023/08/14 21:41:18;;;;;;;9.00;8.20;;;24.30;99.90;;;;;;10423636;28;20252;-86
2023/08/14 21:46:22;;;;;;;8.83;8.07;;;24.30;99.90;;;;;;10425000;28;20299;-86
2023/08/14 21:51:24;;;;;;;8.20;7.60;;;24.30;99.90;;;;;;10428616;28;20301;-86
2023/08/14 21:56:28;;;;;;;9.17;8.27;;;24.20;99.90;;;;;;10432442;28;20873;-86
2023/08/14 22:01:30;;;;;;;7.80;7.20;;;24.20;99.90;;;;;;10427036;28;20662;-86
2023/08/14 22:06:32;;;;;;;8.47;7.73;;;24.20;99.90;;;;;;10427790;28;21155;-87
2023/08/14 22:11:36;;;;;;;10.57;7.33;;;24.20;99.90;;;;;;10431009;28;20202;-87
2023/08/14 22:16:38;;;;;;;8.30;7.70;;;24.20;99.90;;;;;;10431905;28;20222;-88
2023/08/14 22:21:40;;;;;;;10.20;8.40;;;24.20;99.90;;;;;;10432696;28;20229;-87
2023/08/14 22:26:43;;;;;;;7.53;6.77;;;24.20;99.90;;;;;;10431312;28;20869;-87
2023/08/14 22:31:46;;;;;;;8.00;7.50;;;24.20;99.90;;;;;;10433067;28;20485;-87
2023/08/14 22:36:48;;;;;;;8.37;7.67;;;24.20;99.90;;;;;;10433627;28;20237;-86
2023/08/14 22:41:51;;;;;;;8.60;8.00;;;24.20;99.90;;;;;;10436654;28;20226;-85
2023/08/14 22:46:53;;;;;;;8.37;7.67;;;24.20;99.90;;;;;;10439250;28;21306;-87
2023/08/14 22:51:55;;;;;;;7.70;7.13;;;24.20;99.90;;;;;;10430364;28;20206;-87
2023/08/14 22:56:59;;;;;;;8.43;7.83;;;24.20;99.90;;;;;;10431430;28;20223;-87
2023/08/14 23:02:01;;;;;;;8.50;7.90;;;24.20;99.90;;;;;;10431721;28;20230;-87
2023/08/14 23:07:03;;;;;;;9.00;8.30;;;24.20;99.90;;;;;;10440275;28;20229;-86
2023/08/14 23:12:07;;;;;;;8.70;8.00;;;24.20;99.90;;;;;;10428662;28;20206;-86
2023/08/14 23:17:09;;;;;;;8.77;8.00;;;24.10;99.90;;;;;;10442300;28;20218;-89
2023/08/14 23:22:11;;;;;;;9.63;9.00;;;24.10;99.90;;;;;;10421882;28;20229;-86
2023/08/14 23:27:15;;;;;;;10.60;9.43;;;24.10;99.90;;;;;;10429604;28;20313;-86
2023/08/14 23:32:17;;;;;;;8.90;8.17;;;24.00;99.90;;;;;;10426212;28;20216;-86
2023/08/14 23:37:19;;;;;;;7.93;7.43;;;24.00;99.90;;;;;;10426069;28;20222;-87
2023/08/14 23:42:23;;;;;;;9.00;8.40;;;23.90;99.90;;;;;;10423410;28;20897;-87
2023/08/14 23:47:25;;;;;;;10.77;9.07;;;23.90;99.90;;;;;;10428818;28;20736;-86
2023/08/14 23:52:27;;;;;;;9.43;8.77;;;23.90;99.90;;;;;;10426691;28;20198;-87
2023/08/14 23:57:30;;;;;;;10.00;9.20;;;23.80;99.90;;;;;;10434104;28;20622;-86
